createdAt,value
2018-01-27T00:00:29.058Z,1020.63
2018-01-27T00:01:29.073Z,1020.63
2018-01-27T00:02:29.089Z,1020.61
2018-01-27T00:03:29.109Z,1020.67
2018-01-27T00:04:29.120Z,1020.65
2018-01-27T00:05:29.138Z,1020.61
2018-01-27T00:06:29.159Z,1020.61
2018-01-27T00:07:29.179Z,1020.50
2018-01-27T00:08:29.197Z,1020.60
2018-01-27T00:09:29.205Z,1020.57
2018-01-27T00:10:29.227Z,1020.61
2018-01-27T00:11:29.241Z,1020.58
2018-01-27T00:12:29.259Z,1020.60
2018-01-27T00:13:29.281Z,1020.57
2018-01-27T00:14:29.291Z,1020.55
2018-01-27T00:15:29.311Z,1020.57
2018-01-27T00:16:29.328Z,1020.60
2018-01-27T00:17:29.343Z,1020.54
2018-01-27T00:18:29.361Z,1020.61
2018-01-27T00:19:29.377Z,1020.60
2018-01-27T00:20:29.391Z,1020.62
2018-01-27T00:21:29.415Z,1020.60
2018-01-27T00:22:29.422Z,1020.56
2018-01-27T00:23:29.445Z,1020.58
2018-01-27T00:24:29.462Z,1020.57
2018-01-27T00:25:29.479Z,1020.60
2018-01-27T00:26:29.498Z,1020.56
2018-01-27T00:27:29.512Z,1020.57
2018-01-27T00:28:29.530Z,1020.55
2018-01-27T00:29:29.550Z,1020.53
2018-01-27T00:30:29.561Z,1020.57
2018-01-27T00:31:29.579Z,1020.56
2018-01-27T00:32:29.592Z,1020.55
2018-01-27T00:33:29.614Z,1020.60
2018-01-27T00:34:29.631Z,1020.59
2018-01-27T00:35:29.647Z,1020.55
2018-01-27T00:36:29.663Z,1020.60
2018-01-27T00:37:29.676Z,1020.55
2018-01-27T00:38:29.697Z,1020.57
2018-01-27T00:39:29.712Z,1020.59
2018-01-27T00:40:29.733Z,1020.63
2018-01-27T00:41:29.746Z,1020.58
2018-01-27T00:42:29.763Z,1020.60
2018-01-27T00:43:29.776Z,1020.58
2018-01-27T00:44:29.797Z,1020.58
2018-01-27T00:45:29.813Z,1020.66
2018-01-27T00:46:29.829Z,1020.70
2018-01-27T00:47:29.847Z,1020.66
2018-01-27T00:48:29.862Z,1020.67
2018-01-27T00:49:29.879Z,1020.71
2018-01-27T00:50:29.893Z,1020.71
2018-01-27T00:51:29.911Z,1020.71
2018-01-27T00:52:29.926Z,1020.76
2018-01-27T00:53:29.943Z,1020.75
2018-01-27T00:54:29.960Z,1020.74
2018-01-27T00:55:29.979Z,1020.73
2018-01-27T00:56:29.993Z,1020.76
2018-01-27T00:57:30.010Z,1020.79
2018-01-27T00:58:30.027Z,1020.77
2018-01-27T00:59:30.041Z,1020.74
2018-01-27T01:00:30.055Z,1020.79
2018-01-27T01:01:30.076Z,1020.78
2018-01-27T01:02:30.095Z,1020.76
2018-01-27T01:03:30.104Z,1020.79
2018-01-27T01:04:30.124Z,1020.80
2018-01-27T01:05:30.141Z,1020.83
2018-01-27T01:06:30.155Z,1020.79
2018-01-27T01:07:30.176Z,1020.81
2018-01-27T01:08:30.191Z,1020.84
2018-01-27T01:09:30.207Z,1020.83
2018-01-27T01:10:30.227Z,1020.84
2018-01-27T01:11:30.236Z,1020.88
2018-01-27T01:12:30.257Z,1020.88
2018-01-27T01:13:30.273Z,1020.91
2018-01-27T01:14:30.286Z,1020.90
2018-01-27T01:15:30.303Z,1020.94
2018-01-27T01:16:30.322Z,1020.96
2018-01-27T01:17:30.339Z,1020.99
2018-01-27T01:18:30.356Z,1020.97
2018-01-27T01:19:30.370Z,1020.95
2018-01-27T01:20:30.391Z,1021.01
2018-01-27T01:21:30.403Z,1021.01
2018-01-27T01:22:30.422Z,1021.05
2018-01-27T01:23:30.436Z,1020.99
2018-01-27T01:24:30.449Z,1020.98
2018-01-27T01:25:30.468Z,1020.99
2018-01-27T01:26:30.486Z,1020.97
2018-01-27T01:27:30.502Z,1020.99
2018-01-27T01:28:30.518Z,1021.01
2018-01-27T01:29:30.536Z,1020.98
2018-01-27T01:30:30.552Z,1021.00
2018-01-27T01:31:30.565Z,1021.01
2018-01-27T01:32:30.583Z,1021.03
2018-01-27T01:33:30.601Z,1021.10
2018-01-27T01:34:30.616Z,1021.12
2018-01-27T01:35:30.630Z,1021.08
2018-01-27T01:36:30.649Z,1021.11
2018-01-27T01:37:30.672Z,1021.10
2018-01-27T01:38:30.682Z,1021.09
2018-01-27T01:39:30.699Z,1021.09
2018-01-27T01:40:30.714Z,1021.16
2018-01-27T01:41:30.728Z,1021.20
2018-01-27T01:42:30.746Z,1021.13
2018-01-27T01:43:30.762Z,1021.15
2018-01-27T01:44:30.775Z,1021.15
2018-01-27T01:45:30.800Z,1021.12
2018-01-27T01:46:30.811Z,1021.07
2018-01-27T01:47:30.826Z,1021.15
2018-01-27T01:48:30.842Z,1021.14
2018-01-27T01:49:30.859Z,1021.19
2018-01-27T01:50:30.873Z,1021.15
2018-01-27T01:51:30.891Z,1021.15
2018-01-27T01:52:30.910Z,1021.17
2018-01-27T01:53:30.925Z,1021.17
2018-01-27T01:54:30.940Z,1021.23
2018-01-27T01:55:30.962Z,1021.27
2018-01-27T01:56:30.978Z,1021.26
2018-01-27T01:57:30.990Z,1021.23
2018-01-27T01:58:31.007Z,1021.26
2018-01-27T01:59:31.022Z,1021.28
2018-01-27T02:00:31.040Z,1021.29
2018-01-27T02:01:31.055Z,1021.25
2018-01-27T02:02:31.068Z,1021.18
2018-01-27T02:03:31.087Z,1021.24
2018-01-27T02:04:31.101Z,1021.21
2018-01-27T02:05:31.118Z,1021.23
2018-01-27T02:06:31.135Z,1021.28
2018-01-27T02:07:31.148Z,1021.25
2018-01-27T02:08:31.170Z,1021.27
2018-01-27T02:09:31.179Z,1021.27
2018-01-27T02:10:31.198Z,1021.25
2018-01-27T02:11:31.214Z,1021.25
2018-01-27T02:12:31.229Z,1021.27
2018-01-27T02:13:31.245Z,1021.26
2018-01-27T02:14:31.263Z,1021.26
2018-01-27T02:15:31.274Z,1021.27
2018-01-27T02:16:31.290Z,1021.28
2018-01-27T02:17:31.309Z,1021.26
2018-01-27T02:18:31.326Z,1021.30
2018-01-27T02:19:31.350Z,1021.25
2018-01-27T02:20:31.361Z,1021.29
2018-01-27T02:21:31.378Z,1021.32
2018-01-27T02:22:31.387Z,1021.35
2018-01-27T02:23:31.408Z,1021.33
2018-01-27T02:24:31.424Z,1021.33
2018-01-27T02:25:31.442Z,1021.35
2018-01-27T02:26:31.456Z,1021.34
2018-01-27T02:27:31.473Z,1021.36
2018-01-27T02:28:31.486Z,1021.32
2018-01-27T02:29:31.503Z,1021.32
2018-01-27T02:30:31.530Z,1021.35
2018-01-27T02:31:31.538Z,1021.35
2018-01-27T02:32:31.551Z,1021.38
2018-01-27T02:33:31.573Z,1021.31
2018-01-27T02:34:31.584Z,1021.32
2018-01-27T02:35:31.610Z,1021.26
2018-01-27T02:36:31.618Z,1021.30
2018-01-27T02:37:31.634Z,1021.32
2018-01-27T02:38:31.651Z,1021.37
2018-01-27T02:39:31.665Z,1021.36
2018-01-27T02:40:31.680Z,1021.38
2018-01-27T02:41:31.699Z,1021.38
2018-01-27T02:42:31.766Z,1021.39
2018-01-27T02:43:31.732Z,1021.38
2018-01-27T02:44:31.751Z,1021.37
2018-01-27T02:45:31.765Z,1021.37
2018-01-27T02:46:31.781Z,1021.40
2018-01-27T02:47:31.794Z,1021.35
2018-01-27T02:48:31.812Z,1021.33
2018-01-27T02:49:31.830Z,1021.31
2018-01-27T02:50:31.849Z,1021.32
2018-01-27T02:51:31.862Z,1021.36
2018-01-27T02:52:31.881Z,1021.32
2018-01-27T02:53:31.893Z,1021.34
2018-01-27T02:54:31.914Z,1021.30
2018-01-27T02:55:31.930Z,1021.34
2018-01-27T02:56:31.951Z,1021.34
2018-01-27T02:57:31.960Z,1021.31
2018-01-27T02:58:31.977Z,1021.34
2018-01-27T02:59:32.001Z,1021.33
2018-01-27T03:00:32.012Z,1021.32
2018-01-27T03:01:32.027Z,1021.31
2018-01-27T03:02:32.043Z,1021.28
2018-01-27T03:03:32.056Z,1021.32
2018-01-27T03:04:32.078Z,1021.34
2018-01-27T03:05:32.093Z,1021.36
2018-01-27T03:06:32.104Z,1021.40
2018-01-27T03:07:32.125Z,1021.41
2018-01-27T03:08:32.137Z,1021.36
2018-01-27T03:09:32.158Z,1021.40
2018-01-27T03:10:32.167Z,1021.35
2018-01-27T03:11:32.185Z,1021.32
2018-01-27T03:12:32.203Z,1021.32
2018-01-27T03:13:32.222Z,1021.36
2018-01-27T03:14:32.235Z,1021.38
2018-01-27T03:15:32.254Z,1021.40
2018-01-27T03:16:32.269Z,1021.40
2018-01-27T03:17:32.283Z,1021.40
2018-01-27T03:18:32.304Z,1021.38
2018-01-27T03:19:32.313Z,1021.42
2018-01-27T03:20:32.334Z,1021.39
2018-01-27T03:21:32.349Z,1021.43
2018-01-27T03:22:32.365Z,1021.47
2018-01-27T03:23:32.381Z,1021.47
2018-01-27T03:24:32.395Z,1021.55
2018-01-27T03:25:32.411Z,1021.58
2018-01-27T03:26:32.428Z,1021.62
2018-01-27T03:27:32.446Z,1021.63
2018-01-27T03:28:32.462Z,1021.64
2018-01-27T03:29:32.477Z,1021.60
2018-01-27T03:30:32.488Z,1021.64
2018-01-27T03:31:32.510Z,1021.66
2018-01-27T03:32:32.517Z,1021.64
2018-01-27T03:33:32.535Z,1021.65
2018-01-27T03:34:32.555Z,1021.68
2018-01-27T03:35:32.570Z,1021.65
2018-01-27T03:36:32.580Z,1021.71
2018-01-27T03:37:32.603Z,1021.74
2018-01-27T03:38:32.618Z,1021.79
2018-01-27T03:39:32.632Z,1021.79
2018-01-27T03:40:32.653Z,1021.81
2018-01-27T03:41:32.663Z,1021.81
2018-01-27T03:42:32.680Z,1021.79
2018-01-27T03:43:32.694Z,1021.86
2018-01-27T03:44:32.714Z,1021.85
2018-01-27T03:45:32.723Z,1021.91
2018-01-27T03:46:32.741Z,1021.98
2018-01-27T03:47:32.760Z,1021.92
2018-01-27T03:48:32.773Z,1021.96
2018-01-27T03:49:32.788Z,1021.96
2018-01-27T03:50:32.810Z,1021.96
2018-01-27T03:51:32.821Z,1021.96
2018-01-27T03:52:32.979Z,1021.99
2018-01-27T03:53:32.863Z,1022.02
2018-01-27T03:54:32.866Z,1022.01
2018-01-27T03:55:32.881Z,1022.04
2018-01-27T03:56:32.900Z,1022.04
2018-01-27T03:57:32.915Z,1022.11
2018-01-27T03:58:32.932Z,1022.09
2018-01-27T03:59:32.945Z,1022.11
2018-01-27T04:00:32.961Z,1022.11
2018-01-27T04:01:32.979Z,1022.14
2018-01-27T04:02:32.998Z,1022.21
2018-01-27T04:03:33.010Z,1022.17
2018-01-27T04:04:33.026Z,1022.18
2018-01-27T04:05:33.038Z,1022.20
2018-01-27T04:06:33.058Z,1022.18
2018-01-27T04:07:33.074Z,1022.20
2018-01-27T04:08:33.094Z,1022.21
2018-01-27T04:09:33.107Z,1022.22
2018-01-27T04:10:33.118Z,1022.17
2018-01-27T04:11:33.139Z,1022.23
2018-01-27T04:12:33.159Z,1022.23
2018-01-27T04:13:33.171Z,1022.23
2018-01-27T04:14:33.191Z,1022.22
2018-01-27T04:15:33.198Z,1022.25
2018-01-27T04:16:33.213Z,1022.22
2018-01-27T04:17:33.236Z,1022.23
2018-01-27T04:18:33.253Z,1022.26
2018-01-27T04:19:33.266Z,1022.28
2018-01-27T04:20:33.278Z,1022.30
2018-01-27T04:21:33.294Z,1022.28
2018-01-27T04:22:33.313Z,1022.30
2018-01-27T04:23:33.327Z,1022.29
2018-01-27T04:24:33.342Z,1022.32
2018-01-27T04:25:33.362Z,1022.33
2018-01-27T04:26:33.373Z,1022.35
2018-01-27T04:27:33.396Z,1022.37
2018-01-27T04:28:33.405Z,1022.44
2018-01-27T04:29:33.422Z,1022.43
2018-01-27T04:30:33.447Z,1022.48
2018-01-27T04:31:33.455Z,1022.51
2018-01-27T04:32:33.470Z,1022.52
2018-01-27T04:33:33.490Z,1022.52
2018-01-27T04:34:33.506Z,1022.54
2018-01-27T04:35:33.543Z,1022.53
2018-01-27T04:36:33.538Z,1022.61
2018-01-27T04:37:33.554Z,1022.58
2018-01-27T04:38:33.576Z,1022.63
2018-01-27T04:39:33.583Z,1022.62
2018-01-27T04:40:33.599Z,1022.62
2018-01-27T04:41:33.622Z,1022.66
2018-01-27T04:42:33.652Z,1022.63
2018-01-27T04:43:33.649Z,1022.65
2018-01-27T04:44:33.665Z,1022.64
2018-01-27T04:45:33.680Z,1022.64
2018-01-27T04:46:33.698Z,1022.67
2018-01-27T04:47:33.713Z,1022.68
2018-01-27T04:48:33.726Z,1022.71
2018-01-27T04:49:33.744Z,1022.67
2018-01-27T04:50:33.763Z,1022.71
2018-01-27T04:51:33.780Z,1022.71
2018-01-27T04:52:33.798Z,1022.71
2018-01-27T04:53:33.807Z,1022.70
2018-01-27T04:54:33.826Z,1022.73
2018-01-27T04:55:33.842Z,1022.73
2018-01-27T04:56:33.858Z,1022.78
2018-01-27T04:57:33.876Z,1022.78
2018-01-27T04:58:33.894Z,1022.69
2018-01-27T04:59:33.905Z,1022.75
2018-01-27T05:00:33.925Z,1022.78
2018-01-27T05:01:33.940Z,1022.78
2018-01-27T05:02:33.955Z,1022.79
2018-01-27T05:03:33.978Z,1022.81
2018-01-27T05:04:33.989Z,1022.83
2018-01-27T05:05:34.002Z,1022.83
2018-01-27T05:06:34.023Z,1022.86
2018-01-27T05:07:34.038Z,1022.91
2018-01-27T05:08:34.051Z,1022.94
2018-01-27T05:09:34.068Z,1023.00
2018-01-27T05:10:34.086Z,1023.05
2018-01-27T05:11:34.103Z,1023.09
2018-01-27T05:12:34.120Z,1023.10
2018-01-27T05:13:34.133Z,1023.13
2018-01-27T05:14:34.149Z,1023.11
2018-01-27T05:15:34.174Z,1023.12
2018-01-27T05:16:34.182Z,1023.15
2018-01-27T05:17:34.199Z,1023.19
2018-01-27T05:18:34.217Z,1023.15
2018-01-27T05:19:34.231Z,1023.16
2018-01-27T05:20:34.245Z,1023.15
2018-01-27T05:21:34.268Z,1023.15
2018-01-27T05:22:34.286Z,1023.06
2018-01-27T05:23:34.299Z,1023.09
2018-01-27T05:24:34.315Z,1023.11
2018-01-27T05:25:34.332Z,1023.16
2018-01-27T05:26:34.348Z,1023.18
2018-01-27T05:27:34.363Z,1023.19
2018-01-27T05:28:34.377Z,1023.22
2018-01-27T05:29:34.396Z,1023.23
2018-01-27T05:30:34.411Z,1023.21
2018-01-27T05:31:34.431Z,1023.19
2018-01-27T05:32:34.444Z,1023.17
2018-01-27T05:33:34.459Z,1023.12
2018-01-27T05:34:34.478Z,1023.14
2018-01-27T05:35:34.501Z,1023.13
2018-01-27T05:36:34.514Z,1023.16
2018-01-27T05:37:34.529Z,1023.16
2018-01-27T05:38:34.544Z,1023.24
2018-01-27T05:39:34.565Z,1023.24
2018-01-27T05:40:34.578Z,1023.27
2018-01-27T05:41:34.595Z,1023.29
2018-01-27T05:42:34.608Z,1023.30
2018-01-27T05:43:34.625Z,1023.25
2018-01-27T05:44:34.642Z,1023.27
2018-01-27T05:45:34.659Z,1023.29
2018-01-27T05:46:34.680Z,1023.32
2018-01-27T05:47:34.693Z,1023.31
2018-01-27T05:48:34.712Z,1023.28
2018-01-27T05:49:34.729Z,1023.33
2018-01-27T05:50:34.740Z,1023.30
2018-01-27T05:51:34.757Z,1023.28
2018-01-27T05:52:34.773Z,1023.26
2018-01-27T05:53:34.794Z,1023.29
2018-01-27T05:54:34.816Z,1023.34
2018-01-27T05:55:34.832Z,1023.33
2018-01-27T05:56:34.842Z,1023.35
2018-01-27T05:57:34.859Z,1023.38
2018-01-27T05:58:34.877Z,1023.36
2018-01-27T05:59:34.892Z,1023.39
2018-01-27T06:00:34.906Z,1023.44
2018-01-27T06:01:34.925Z,1023.41
2018-01-27T06:02:34.945Z,1023.42
2018-01-27T06:03:34.958Z,1023.46
2018-01-27T06:04:34.977Z,1023.43
2018-01-27T06:05:34.993Z,1023.34
2018-01-27T06:06:35.012Z,1023.32
2018-01-27T06:07:35.025Z,1023.34
2018-01-27T06:08:35.039Z,1023.35
2018-01-27T06:09:35.056Z,1023.38
2018-01-27T06:10:35.075Z,1023.30
2018-01-27T06:11:35.093Z,1023.37
2018-01-27T06:12:35.104Z,1023.37
2018-01-27T06:13:35.126Z,1023.43
2018-01-27T06:14:35.139Z,1023.42
2018-01-27T06:15:35.156Z,1023.48
2018-01-27T06:16:35.173Z,1023.51
2018-01-27T06:17:35.193Z,1023.58
2018-01-27T06:18:35.212Z,1023.59
2018-01-27T06:19:35.223Z,1023.64
2018-01-27T06:20:35.237Z,1023.73
2018-01-27T06:21:35.260Z,1023.75
2018-01-27T06:22:35.269Z,1023.78
2018-01-27T06:23:35.289Z,1023.83
2018-01-27T06:24:35.303Z,1023.89
2018-01-27T06:25:35.325Z,1023.80
2018-01-27T06:26:35.342Z,1023.84
2018-01-27T06:27:35.358Z,1023.81
2018-01-27T06:28:35.373Z,1023.85
2018-01-27T06:29:35.390Z,1023.81
2018-01-27T06:30:35.408Z,1023.86
2018-01-27T06:31:35.427Z,1023.92
2018-01-27T06:32:35.449Z,1023.91
2018-01-27T06:33:35.457Z,1023.98
2018-01-27T06:34:35.473Z,1023.94
2018-01-27T06:35:35.490Z,1024.00
2018-01-27T06:36:35.506Z,1024.05
2018-01-27T06:37:35.520Z,1024.08
2018-01-27T06:38:35.539Z,1024.10
2018-01-27T06:39:35.559Z,1024.14
2018-01-27T06:40:35.615Z,1024.14
2018-01-27T06:41:35.590Z,1024.17
2018-01-27T06:42:35.605Z,1024.17
2018-01-27T06:43:35.622Z,1024.19
2018-01-27T06:44:35.634Z,1024.19
2018-01-27T06:45:35.657Z,1024.19
2018-01-27T06:46:35.672Z,1024.16
2018-01-27T06:47:35.690Z,1024.19
2018-01-27T06:48:35.712Z,1024.20
2018-01-27T06:49:35.721Z,1024.21
2018-01-27T06:50:35.879Z,1024.21
2018-01-27T06:51:35.755Z,1024.16
2018-01-27T06:52:35.776Z,1024.16
2018-01-27T06:53:35.794Z,1024.17
2018-01-27T06:54:35.802Z,1024.19
2018-01-27T06:55:35.823Z,1024.19
2018-01-27T06:56:35.834Z,1024.20
2018-01-27T06:57:35.854Z,1024.25
2018-01-27T06:58:35.872Z,1024.24
2018-01-27T06:59:35.886Z,1024.24
2018-01-27T07:00:35.901Z,1024.20
2018-01-27T07:01:35.919Z,1024.27
2018-01-27T07:02:35.936Z,1024.26
2018-01-27T07:03:35.953Z,1024.27
2018-01-27T07:04:35.970Z,1024.27
2018-01-27T07:05:35.989Z,1024.33
2018-01-27T07:06:36.002Z,1024.32
2018-01-27T07:07:36.024Z,1024.31
2018-01-27T07:08:36.042Z,1024.35
2018-01-27T07:09:36.060Z,1024.32
2018-01-27T07:10:36.080Z,1024.35
2018-01-27T07:11:36.087Z,1024.38
2018-01-27T07:12:36.109Z,1024.43
2018-01-27T07:13:36.121Z,1024.45
2018-01-27T07:14:36.133Z,1024.43
2018-01-27T07:15:36.157Z,1024.47
2018-01-27T07:16:36.168Z,1024.47
2018-01-27T07:17:36.189Z,1024.44
2018-01-27T07:18:36.207Z,1024.50
2018-01-27T07:19:36.222Z,1024.49
2018-01-27T07:20:36.235Z,1024.52
2018-01-27T07:21:36.256Z,1024.49
2018-01-27T07:22:36.271Z,1024.47
2018-01-27T07:23:36.288Z,1024.46
2018-01-27T07:24:36.302Z,1024.50
2018-01-27T07:25:36.322Z,1024.51
2018-01-27T07:26:36.336Z,1024.50
2018-01-27T07:27:36.357Z,1024.51
2018-01-27T07:28:36.366Z,1024.46
2018-01-27T07:29:36.386Z,1024.45
2018-01-27T07:30:36.404Z,1024.51
2018-01-27T07:31:36.419Z,1024.53
2018-01-27T07:32:36.435Z,1024.55
2018-01-27T07:33:36.456Z,1024.54
2018-01-27T07:34:36.467Z,1024.52
2018-01-27T07:35:36.485Z,1024.53
2018-01-27T07:36:36.501Z,1024.56
2018-01-27T07:37:36.518Z,1024.60
2018-01-27T07:38:36.540Z,1024.50
2018-01-27T07:39:36.556Z,1024.46
2018-01-27T07:40:36.571Z,1024.48
2018-01-27T07:41:36.597Z,1024.48
2018-01-27T07:42:36.604Z,1024.50
2018-01-27T07:43:36.623Z,1024.47
2018-01-27T07:44:36.637Z,1024.50
2018-01-27T07:45:36.653Z,1024.52
2018-01-27T07:46:36.668Z,1024.50
2018-01-27T07:47:36.688Z,1024.49
2018-01-27T07:48:36.709Z,1024.48
2018-01-27T07:49:36.724Z,1024.48
2018-01-27T07:50:36.738Z,1024.43
2018-01-27T07:51:36.757Z,1024.43
2018-01-27T07:52:36.810Z,1024.49
2018-01-27T07:53:36.797Z,1024.53
2018-01-27T07:54:36.803Z,1024.55
2018-01-27T07:55:36.821Z,1024.59
2018-01-27T07:56:36.838Z,1024.56
2018-01-27T07:57:36.859Z,1024.53
2018-01-27T07:58:36.873Z,1024.50
2018-01-27T07:59:36.889Z,1024.49
2018-01-27T08:00:36.905Z,1024.49
2018-01-27T08:01:36.922Z,1024.47
2018-01-27T08:02:36.940Z,1024.39
2018-01-27T08:03:36.960Z,1024.38
2018-01-27T08:04:36.970Z,1024.39
2018-01-27T08:05:36.986Z,1024.39
2018-01-27T08:06:37.005Z,1024.40
2018-01-27T08:07:37.017Z,1024.44
2018-01-27T08:08:37.036Z,1024.43
2018-01-27T08:09:37.054Z,1024.45
2018-01-27T08:10:37.071Z,1024.51
2018-01-27T08:11:37.084Z,1024.53
2018-01-27T08:12:37.100Z,1024.49
2018-01-27T08:13:37.122Z,1024.47
2018-01-27T08:14:37.143Z,1024.49
2018-01-27T08:15:37.152Z,1024.46
2018-01-27T08:16:37.173Z,1024.44
2018-01-27T08:17:37.184Z,1024.46
2018-01-27T08:18:37.208Z,1024.48
2018-01-27T08:19:37.223Z,1024.51
2018-01-27T08:20:37.235Z,1024.47
2018-01-27T08:21:37.261Z,1024.46
2018-01-27T08:22:37.272Z,1024.48
2018-01-27T08:23:37.293Z,1024.49
2018-01-27T08:24:37.319Z,1024.52
2018-01-27T08:25:37.320Z,1024.50
2018-01-27T08:26:37.340Z,1024.47
2018-01-27T08:27:37.358Z,1024.47
2018-01-27T08:28:37.370Z,1024.48
2018-01-27T08:29:37.389Z,1024.53
2018-01-27T08:30:37.405Z,1024.50
2018-01-27T08:31:37.425Z,1024.52
2018-01-27T08:32:37.441Z,1024.50
2018-01-27T08:33:37.457Z,1024.54
2018-01-27T08:34:37.477Z,1024.52
2018-01-27T08:35:37.494Z,1024.54
2018-01-27T08:36:37.510Z,1024.58
2018-01-27T08:37:37.527Z,1024.60
2018-01-27T08:38:37.556Z,1024.71
2018-01-27T08:39:37.564Z,1024.69
2018-01-27T08:40:37.583Z,1024.69
2018-01-27T08:41:37.594Z,1024.69
2018-01-27T08:42:37.615Z,1024.70
2018-01-27T08:43:37.629Z,1024.69
2018-01-27T08:44:37.645Z,1024.68
2018-01-27T08:45:37.660Z,1024.63
2018-01-27T08:46:37.683Z,1024.66
2018-01-27T08:47:37.697Z,1024.66
2018-01-27T08:48:37.714Z,1024.64
2018-01-27T08:49:37.735Z,1024.69
2018-01-27T08:50:37.748Z,1024.72
2018-01-27T08:51:37.771Z,1024.72
2018-01-27T08:52:37.787Z,1024.77
2018-01-27T08:53:37.799Z,1024.74
2018-01-27T08:54:37.818Z,1024.76
2018-01-27T08:55:37.839Z,1024.76
2018-01-27T08:56:37.855Z,1024.80
2018-01-27T08:57:37.871Z,1024.69
2018-01-27T08:58:37.887Z,1024.66
2018-01-27T08:59:37.906Z,1024.68
2018-01-27T09:00:39.336Z,1024.68
2018-01-27T09:01:37.938Z,1024.70
2018-01-27T09:02:37.956Z,1024.73
2018-01-27T09:03:37.977Z,1024.77
2018-01-27T09:04:37.990Z,1024.77
2018-01-27T09:05:38.009Z,1024.73
2018-01-27T09:06:38.025Z,1024.73
2018-01-27T09:07:38.046Z,1024.69
2018-01-27T09:08:38.060Z,1024.68
2018-01-27T09:09:38.076Z,1024.69
2018-01-27T09:10:38.095Z,1024.65
2018-01-27T09:11:38.114Z,1024.71
2018-01-27T09:12:38.132Z,1024.65
2018-01-27T09:13:38.149Z,1024.65
2018-01-27T09:14:38.164Z,1024.64
2018-01-27T09:15:38.184Z,1024.62
2018-01-27T09:16:38.202Z,1024.66
2018-01-27T09:17:38.217Z,1024.62
2018-01-27T09:18:38.233Z,1024.67
2018-01-27T09:19:38.253Z,1024.69
2018-01-27T09:20:38.267Z,1024.69
2018-01-27T09:21:38.287Z,1024.69
2018-01-27T09:22:38.301Z,1024.68
2018-01-27T09:23:38.322Z,1024.67
2018-01-27T09:24:38.392Z,1024.66
2018-01-27T09:25:38.357Z,1024.65
2018-01-27T09:26:38.376Z,1024.73
2018-01-27T09:27:38.394Z,1024.75
2018-01-27T09:28:38.409Z,1024.81
2018-01-27T09:29:38.431Z,1024.83
2018-01-27T09:30:38.446Z,1024.88
2018-01-27T09:31:38.463Z,1024.86
2018-01-27T09:32:38.478Z,1024.87
2018-01-27T09:33:38.498Z,1024.84
2018-01-27T09:34:38.512Z,1024.90
2018-01-27T09:35:38.536Z,1024.86
2018-01-27T09:36:38.554Z,1024.82
2018-01-27T09:37:38.566Z,1024.83
2018-01-27T09:38:38.592Z,1024.81
2018-01-27T09:39:38.602Z,1024.84
2018-01-27T09:40:38.622Z,1024.89
2018-01-27T09:41:38.641Z,1024.86
2018-01-27T09:42:38.659Z,1024.89
2018-01-27T09:43:38.677Z,1024.94
2018-01-27T09:44:38.695Z,1024.93
2018-01-27T09:45:38.712Z,1024.89
2018-01-27T09:46:38.728Z,1024.95
2018-01-27T09:47:38.750Z,1024.92
2018-01-27T09:48:38.766Z,1024.88
2018-01-27T09:49:38.785Z,1024.90
2018-01-27T09:50:38.800Z,1024.89
2018-01-27T09:51:38.814Z,1024.84
2018-01-27T09:52:38.840Z,1024.93
2018-01-27T09:53:38.852Z,1024.92
2018-01-27T09:54:38.878Z,1024.92
2018-01-27T09:55:38.887Z,1024.92
2018-01-27T09:56:38.908Z,1024.94
2018-01-27T09:57:38.931Z,1024.88
2018-01-27T09:58:38.955Z,1024.86
2018-01-27T09:59:38.964Z,1024.94
2018-01-27T10:00:38.976Z,1024.99
2018-01-27T10:01:38.991Z,1024.98
2018-01-27T10:02:39.012Z,1025.02
2018-01-27T10:03:39.030Z,1024.98
2018-01-27T10:04:39.047Z,1024.99
2018-01-27T10:05:39.069Z,1025.00
2018-01-27T10:06:39.082Z,1025.00
2018-01-27T10:07:39.098Z,1025.00
2018-01-27T10:08:39.123Z,1024.95
2018-01-27T10:09:39.133Z,1024.99
2018-01-27T10:10:39.151Z,1024.91
2018-01-27T10:11:39.174Z,1024.94
2018-01-27T10:12:39.186Z,1024.88
2018-01-27T10:13:39.207Z,1024.91
2018-01-27T10:14:39.226Z,1024.92
2018-01-27T10:15:39.244Z,1024.94
2018-01-27T10:16:39.262Z,1024.95
2018-01-27T10:17:39.277Z,1024.89
2018-01-27T10:18:39.301Z,1024.95
2018-01-27T10:19:39.318Z,1024.93
2018-01-27T10:20:39.332Z,1024.94
2018-01-27T10:21:39.355Z,1024.96
2018-01-27T10:22:39.367Z,1024.94
2018-01-27T10:23:39.387Z,1024.96
2018-01-27T10:24:39.409Z,1024.95
2018-01-27T10:25:39.420Z,1024.95
2018-01-27T10:26:39.440Z,1024.88
2018-01-27T10:27:39.457Z,1024.90
2018-01-27T10:28:39.480Z,1024.92
2018-01-27T10:29:39.493Z,1025.01
2018-01-27T10:30:39.508Z,1024.99
2018-01-27T10:31:39.528Z,1024.99
2018-01-27T10:32:39.546Z,1025.00
2018-01-27T10:33:39.562Z,1025.04
2018-01-27T10:34:39.582Z,1025.02
2018-01-27T10:35:39.600Z,1025.00
2018-01-27T10:36:39.617Z,1025.00
2018-01-27T10:37:39.633Z,1025.03
2018-01-27T10:38:39.651Z,1025.04
2018-01-27T10:39:39.670Z,1025.00
2018-01-27T10:40:39.687Z,1025.03
2018-01-27T10:41:39.705Z,1025.01
2018-01-27T10:42:39.724Z,1025.07
2018-01-27T10:43:39.744Z,1025.07
2018-01-27T10:44:39.760Z,1025.07
2018-01-27T10:45:39.780Z,1025.09
2018-01-27T10:46:39.791Z,1025.07
2018-01-27T10:47:39.814Z,1025.12
2018-01-27T10:48:39.829Z,1025.05
2018-01-27T10:49:39.851Z,1025.12
2018-01-27T10:50:39.867Z,1025.10
2018-01-27T10:51:39.885Z,1025.09
2018-01-27T10:52:39.904Z,1025.10
2018-01-27T10:53:39.919Z,1025.16
2018-01-27T10:54:39.938Z,1025.16
2018-01-27T10:55:39.977Z,1025.17
2018-01-27T10:56:39.970Z,1025.22
2018-01-27T10:57:39.992Z,1025.12
2018-01-27T10:58:40.014Z,1025.12
2018-01-27T10:59:40.029Z,1025.09
2018-01-27T11:00:40.048Z,1025.06
2018-01-27T11:01:40.065Z,1025.11
2018-01-27T11:02:40.084Z,1025.08
2018-01-27T11:03:40.103Z,1025.07
2018-01-27T11:04:40.117Z,1025.08
2018-01-27T11:05:40.138Z,1025.09
2018-01-27T11:06:40.156Z,1025.05
2018-01-27T11:07:40.174Z,1025.01
2018-01-27T11:08:40.189Z,1025.02
2018-01-27T11:09:40.209Z,1025.02
2018-01-27T11:10:40.231Z,1025.03
2018-01-27T11:11:40.247Z,1025.02
2018-01-27T11:12:40.270Z,1025.05
2018-01-27T11:13:40.285Z,1025.02
2018-01-27T11:14:40.302Z,1025.03
2018-01-27T11:15:40.322Z,1025.02
2018-01-27T11:16:40.337Z,1025.06
2018-01-27T11:17:40.357Z,1025.00
2018-01-27T11:18:40.376Z,1025.02
2018-01-27T11:19:40.399Z,1025.03
2018-01-27T11:20:40.412Z,1025.08
2018-01-27T11:21:40.434Z,1025.05
2018-01-27T11:22:40.448Z,1025.07
2018-01-27T11:23:40.467Z,1025.02
2018-01-27T11:24:40.496Z,1025.01
2018-01-27T11:25:40.505Z,1025.00
2018-01-27T11:26:40.527Z,1025.03
2018-01-27T11:27:40.544Z,1024.97
2018-01-27T11:28:40.564Z,1024.96
2018-01-27T11:29:40.617Z,1024.95
2018-01-27T11:30:40.597Z,1025.05
2018-01-27T11:31:40.618Z,1024.96
2018-01-27T11:32:40.639Z,1024.95
2018-01-27T11:33:40.654Z,1024.96
2018-01-27T11:34:40.673Z,1024.98
2018-01-27T11:35:40.697Z,1024.99
2018-01-27T11:36:40.711Z,1024.92
2018-01-27T11:37:40.730Z,1024.95
2018-01-27T11:38:40.752Z,1024.99
2018-01-27T11:39:40.776Z,1024.99
2018-01-27T11:40:40.784Z,1025.01
2018-01-27T11:41:40.800Z,1024.95
2018-01-27T11:42:40.823Z,1024.94
2018-01-27T11:43:40.858Z,1024.95
2018-01-27T11:44:40.862Z,1025.00
2018-01-27T11:45:40.885Z,1024.97
2018-01-27T11:46:40.897Z,1024.98
2018-01-27T11:47:40.916Z,1024.96
2018-01-27T11:48:40.937Z,1024.96
2018-01-27T11:49:40.957Z,1024.95
2018-01-27T11:50:40.979Z,1024.93
2018-01-27T11:51:41.012Z,1024.86
2018-01-27T11:52:41.014Z,1024.82
2018-01-27T11:53:41.054Z,1024.87
2018-01-27T11:54:41.068Z,1024.84
2018-01-27T11:55:41.086Z,1024.87
2018-01-27T11:56:41.084Z,1024.89
2018-01-27T11:57:41.107Z,1024.89
2018-01-27T11:58:41.125Z,1024.89
2018-01-27T11:59:41.141Z,1024.87
2018-01-27T12:00:41.210Z,1024.87
2018-01-27T12:01:41.193Z,1024.89
2018-01-27T12:02:41.208Z,1024.84
2018-01-27T12:03:41.222Z,1024.87
2018-01-27T12:04:41.243Z,1024.79
2018-01-27T12:05:41.254Z,1024.81